Westworth Village, Texas
Current Conditions -  °F | °C
As of 8:52 PM on Friday 28 Nov 2014 (Local Time) from KNFW Reporting Station
Few Clouds Few Clouds  
Wind Chill: 63°   Ceiling: Unl
Heat Index: 63°   Visibility: 10mi
Dew Point: 45°   Wind: 16mph
Humidity: 52%   Direction: 180°S
Pressure: 30.04"   Gusts: NA
Location:  32.7763°N, 97.4092°W
Report Text: KNFW 290252Z 18014KT 10SM FEW250 17/07 A3004 RMK AO2 SLP155 T01720072 58004
Loading
Personal Weather Stations






























Interactive Weather Map New forecast layout! Learn more

10-Day Weather Forecast

Advertisements
Track Severe Weather on mobile